Weather at Campo di Volo "Air Patria"

Public forecast

Using degrees Celsius for public forecast. Weather courtesy of forecast.io.

Closest aviation weather report (METAR) to Campo di Volo "Air Patria"

Closest report is Grazzanise Air Base, 8.1 nm (15.0 km) N.

2024/07/17 12:55 (retrieved 1 hour ago)

LIRM 171255Z 20010KT CAVOK 33/26 Q1014 RMK SKC VIS MIN 9999 WIND THR06 24008KT BLU

Closest aviation forecast (TAF) to Campo di Volo "Air Patria"

Closest forecast is Naples International Airport, 10.7 nm (19.8 km) ESE.

2024/07/17 12:00 (retrieved 2 hours ago)

TAF LIRN 171100Z 1712/1812 22010KT CAVOK BECMG 1718/1720 VRB05KT